METAR Data
IDs: Format: Raw Decoded Include TAF

Data at: 1425 UTC 22 Apr 2021

EDDF 221420Z 02005KT 310V100 CAVOK 14/M01 Q1023 NOSIG